Time;durP1;ratioP1;P1;durP2;ratioP2;P2;SDS_P1;SDS_P2;PMS_P1;PMS_P2;Temp;Humidity;BMP_temperature;BMP_pressure;BME280_temperature;BME280_humidity;BME280_pressure;Samples;Min_cycle;Max_cycle;Signal;HPM_P1;HPM_P2
2022/05/10 00:00:55;;;;;;;16.73;13.27;;;;;;;18.36;51.25;101947.44;5005983;28;20041;-61
2022/05/10 00:03:23;;;;;;;17.98;13.85;;;;;;;18.32;51.16;101951.09;5011844;28;20026;-62
2022/05/10 00:05:49;;;;;;;19.33;14.00;;;;;;;18.33;51.31;101939.56;5008134;28;20113;-61
2022/05/10 00:08:17;;;;;;;17.80;13.48;;;;;;;18.26;51.52;101950.22;5004328;28;20165;-61
2022/05/10 00:10:44;;;;;;;19.88;15.00;;;;;;;18.24;51.70;101943.22;5005926;28;20087;-61
2022/05/10 00:13:09;;;;;;;18.35;13.50;;;;;;;18.22;51.72;101937.88;5008004;28;20021;-62
2022/05/10 00:15:38;;;;;;;19.42;14.18;;;;;;;18.22;51.80;101942.63;5011316;28;20044;-62
2022/05/10 00:18:03;;;;;;;16.70;14.25;;;;;;;18.20;51.57;101940.13;5013781;28;20480;-62
2022/05/10 00:20:29;;;;;;;16.67;14.40;;;;;;;18.17;51.94;101934.22;5012308;28;20107;-61
2022/05/10 00:22:54;;;;;;;19.88;13.95;;;;;;;18.12;52.05;101921.84;5010445;28;20045;-62
2022/05/10 00:25:25;;;;;;;19.42;14.75;;;;;;;18.07;52.04;101926.59;5007061;28;20033;-62
2022/05/10 00:27:50;;;;;;;19.00;14.55;;;;;;;18.06;52.18;101922.94;5012695;28;20112;-61
2022/05/10 00:30:16;;;;;;;17.90;14.65;;;;;;;18.02;52.19;101921.81;5010859;28;20105;-62
2022/05/10 00:32:43;;;;;;;17.92;14.60;;;;;;;17.97;52.29;101915.34;5011103;28;20054;-61
2022/05/10 00:35:17;;;;;;;21.40;15.57;;;;;;;17.94;52.48;101916.72;5011082;28;20120;-61
2022/05/10 00:37:45;;;;;;;19.90;15.25;;;;;;;17.91;52.43;101917.28;5010148;28;20022;-61
2022/05/10 00:40:12;;;;;;;20.80;15.70;;;;;;;17.86;52.75;101911.66;5009099;28;20030;-62
2022/05/10 00:42:51;;;;;;;19.67;15.18;;;;;;;17.87;52.72;101913.34;5005672;28;20029;-62
2022/05/10 00:45:23;;;;;;;21.58;14.80;;;;;;;17.86;52.90;101914.47;5009471;28;20038;-62
2022/05/10 00:48:10;;;;;;;18.17;15.55;;;;;;;17.80;53.29;101913.63;5008070;28;20049;-62
2022/05/10 00:50:43;;;;;;;22.50;15.68;;;;;;;17.77;53.23;101907.72;5006677;28;20136;-62
2022/05/10 00:53:25;;;;;;;19.67;15.70;;;;;;;17.78;52.98;101915.00;5009545;28;20034;-62
2022/05/10 00:56:02;;;;;;;22.67;15.20;;;;;;;17.71;53.18;101909.59;5008796;28;20121;-62
2022/05/10 00:58:44;;;;;;;24.05;16.70;;;;;;;17.72;52.97;101899.22;5005789;28;20029;-62
2022/05/10 01:01:16;;;;;;;20.70;16.23;;;;;;;17.63;53.65;101901.72;5009741;28;20500;-62
2022/05/10 01:03:56;;;;;;;20.67;16.70;;;;;;;17.69;53.26;101897.81;5007899;28;20489;-62
2022/05/10 01:06:25;;;;;;;24.48;16.77;;;;;;;17.59;53.66;101894.97;5007623;28;20038;-62
2022/05/10 01:09:02;;;;;;;20.80;16.65;;;;;;;17.51;53.72;101892.69;5008534;28;20387;-62
2022/05/10 01:11:32;;;;;;;22.05;16.70;;;;;;;17.53;53.78;101893.28;5006351;28;20036;-62
2022/05/10 01:14:04;;;;;;;23.55;17.90;;;;;;;17.43;54.02;101883.66;5008660;28;20030;-62
2022/05/10 01:16:29;;;;;;;21.80;17.15;;;;;;;17.46;54.08;101882.28;5006329;28;20044;-61
2022/05/10 01:18:55;;;;;;;21.55;17.50;;;;;;;17.43;53.76;101889.28;5006743;28;20117;-61
2022/05/10 01:21:45;;;;;;;24.00;17.42;;;;;;;17.45;53.69;101886.22;5006815;28;20523;-62
2022/05/10 01:24:13;;;;;;;26.48;18.23;;;;;;;17.40;54.32;101887.03;4997959;28;20072;-62
2022/05/10 01:27:03;;;;;;;23.23;17.50;;;;;;;17.48;53.85;101882.84;5008890;28;20053;-62
2022/05/10 01:29:38;;;;;;;24.42;17.35;;;;;;;17.31;54.53;101883.06;5006518;28;20084;-61
2022/05/10 01:34:56;;;;;;;24.02;17.92;;;;;;;17.26;54.59;101874.63;5009634;28;20048;-62
2022/05/10 01:37:25;;;;;;;25.40;17.85;;;;;;;17.23;54.76;101874.31;5010054;28;20169;-62
2022/05/10 01:39:56;;;;;;;24.27;17.83;;;;;;;17.24;54.66;101861.97;5009016;28;20523;-62
2022/05/10 01:42:29;;;;;;;25.58;17.45;;;;;;;17.23;54.85;101865.91;5008205;28;20045;-62
2022/05/10 01:44:57;;;;;;;25.00;17.17;;;;;;;17.21;54.84;101863.34;5001941;28;20021;-62
2022/05/10 01:47:29;;;;;;;21.05;17.40;;;;;;;17.19;55.03;101862.81;5007128;28;20074;-62
2022/05/10 01:50:02;;;;;;;;;;;;;;;17.48;53.08;101851.13;5005727;28;20062;-62
2022/05/10 01:52:47;;;;;;;20.10;16.95;;;;;;;17.26;54.29;101849.38;5007191;28;19921;-62
2022/05/10 01:55:35;;;;;;;24.70;17.83;;;;;;;17.18;54.50;101841.47;5011525;28;20034;-62
2022/05/10 01:58:10;;;;;;;20.50;18.25;;;;;;;17.12;54.91;101842.56;5012010;28;20037;-62
2022/05/10 02:00:38;;;;;;;21.17;17.80;;;;;;;17.11;55.21;101841.72;5011178;28;20416;-62
2022/05/10 02:03:44;;;;;;;19.50;17.33;;;;;;;17.03;55.47;101842.25;5011264;28;20022;-62
2022/05/10 02:06:34;;;;;;;22.35;17.80;;;;;;;17.09;55.07;101845.91;4989008;28;20080;-62
2022/05/10 02:09:14;;;;;;;23.50;17.95;;;;;;;17.03;55.54;101833.84;4989424;28;20092;-62
2022/05/10 02:11:46;;;;;;;25.75;18.13;;;;;;;16.99;55.77;101832.69;5001202;28;20772;-62
2022/05/10 02:14:20;;;;;;;;;;;;;;;17.27;53.64;101831.41;5012216;28;20365;-62
2022/05/10 02:16:55;;;;;;;25.33;18.30;;;;;;;16.97;55.74;101834.06;5009792;28;19971;-62
2022/05/10 02:19:37;;;;;;;22.13;17.88;;;;;;;16.99;55.37;101834.66;5012196;28;20377;-62
2022/05/10 02:22:08;;;;;;;20.50;18.30;;;;;;;16.95;55.98;101825.94;5010903;28;20144;-62
2022/05/10 02:24:45;;;;;;;26.30;18.48;;;;;;;16.98;55.85;101821.72;5013358;28;20026;-62
2022/05/10 02:27:18;;;;;;;20.88;17.83;;;;;;;16.94;56.12;101824.25;5012638;28;20041;-62
2022/05/10 02:29:47;;;;;;;22.85;18.55;;;;;;;16.92;56.21;101820.88;5011878;28;20393;-62
2022/05/10 02:35:08;;;;;;;20.58;18.38;;;;;;;16.87;56.77;101816.09;5000633;28;20088;-62
2022/05/10 02:37:33;;;;;;;22.40;17.83;;;;;;;16.97;56.55;101809.66;5012388;28;20509;-62
2022/05/10 02:39:59;;;;;;;22.13;18.85;;;;;;;16.96;56.38;101812.75;5012096;28;20124;-62
2022/05/10 02:42:26;;;;;;;26.98;19.20;;;;;;;16.85;56.71;101811.84;5010774;28;20229;-62
2022/05/10 02:44:54;;;;;;;22.27;18.48;;;;;;;16.86;56.77;101805.16;5011878;28;20037;-62
2022/05/10 02:47:32;;;;;;;21.58;17.60;;;;;;;16.91;56.38;101803.19;5012489;28;20092;-62
2022/05/10 02:49:58;;;;;;;26.13;19.17;;;;;;;16.88;56.65;101800.09;5010063;28;20033;-62
2022/05/10 02:52:27;;;;;;;24.50;18.48;;;;;;;16.90;56.47;101797.88;5010445;28;20037;-62
2022/05/10 02:55:05;;;;;;;26.58;19.60;;;;;;;16.91;56.59;101794.78;5010296;28;20053;-62
2022/05/10 02:57:30;;;;;;;25.08;19.65;;;;;;;16.83;56.50;101786.06;5010766;28;20034;-62
2022/05/10 03:00:00;;;;;;;24.35;19.55;;;;;;;16.88;56.57;101792.53;5009821;28;20034;-62
2022/05/10 03:02:34;;;;;;;25.08;19.55;;;;;;;16.82;56.32;101789.94;5011580;28;20022;-62
2022/05/10 03:05:04;;;;;;;26.40;19.73;;;;;;;16.86;56.55;101786.34;5009642;28;20037;-62
2022/05/10 03:07:30;;;;;;;25.10;19.10;;;;;;;16.85;56.79;101784.66;5011119;28;20034;-62
2022/05/10 03:09:55;;;;;;;24.33;17.73;;;;;;;16.85;56.78;101778.19;5009745;28;20112;-62
2022/05/10 03:12:21;;;;;;;20.15;17.92;;;;;;;16.86;56.63;101775.13;5011191;28;20037;-62
2022/05/10 03:14:46;;;;;;;23.20;18.00;;;;;;;16.85;56.98;101772.59;5009564;28;20025;-62
2022/05/10 03:17:12;;;;;;;25.23;18.33;;;;;;;16.82;57.21;101773.13;5010911;28;20034;-62
2022/05/10 03:19:44;;;;;;;25.10;19.98;;;;;;;16.81;57.28;101766.69;5017917;28;20029;-62
2022/05/10 03:22:11;;;;;;;22.10;18.08;;;;;;;16.85;56.96;101773.44;5010624;28;20068;-62
2022/05/10 03:24:36;;;;;;;22.58;18.30;;;;;;;16.75;57.01;101767.78;5008845;28;20083;-61
2022/05/10 03:27:04;;;;;;;23.45;18.05;;;;;;;16.80;56.68;101770.63;5012151;28;20396;-61
2022/05/10 03:29:29;;;;;;;24.77;19.48;;;;;;;16.80;56.45;101759.41;5017500;28;20030;-61
2022/05/10 03:31:56;;;;;;;24.85;19.25;;;;;;;16.82;56.88;101762.78;5011401;28;20033;-61
2022/05/10 03:37:05;;;;;;;24.00;18.42;;;;;;;16.86;56.99;101760.28;5010035;28;20071;-61
2022/05/10 03:39:31;;;;;;;24.65;18.42;;;;;;;16.83;57.15;101755.22;5009062;28;20022;-61
2022/05/10 03:41:56;;;;;;;23.70;18.25;;;;;;;16.81;57.22;101758.28;5008276;28;20143;-61
2022/05/10 03:44:22;;;;;;;23.58;18.58;;;;;;;16.79;56.99;101745.66;5009104;28;20087;-61
2022/05/10 03:46:47;;;;;;;27.30;17.85;;;;;;;16.79;57.18;101754.91;5005871;28;20037;-61
2022/05/10 03:49:13;;;;;;;20.85;18.20;;;;;;;16.78;57.19;101753.22;5007816;28;20432;-61
2022/05/10 03:51:42;;;;;;;26.60;19.52;;;;;;;16.78;56.86;101752.38;5007777;28;20037;-61
2022/05/10 03:54:07;;;;;;;22.77;18.27;;;;;;;16.74;57.03;101752.09;5009228;28;20469;-61
2022/05/10 03:56:34;;;;;;;23.20;18.65;;;;;;;16.77;57.03;101748.72;5008495;28;20033;-61
2022/05/10 03:59:00;;;;;;;24.95;18.92;;;;;;;16.76;56.45;101746.19;5008179;28;20105;-61
2022/05/10 04:01:26;;;;;;;26.05;19.80;;;;;;;16.75;56.50;101741.72;5008562;28;20037;-61
2022/05/10 04:03:51;;;;;;;30.08;19.95;;;;;;;16.78;56.60;101738.34;5009066;28;20053;-61
2022/05/10 04:06:17;;;;;;;24.23;18.20;;;;;;;16.85;56.69;101744.56;5009163;28;20035;-61
2022/05/10 04:08:45;;;;;;;28.92;20.10;;;;;;;16.79;56.48;101735.28;5009440;28;20034;-61
2022/05/10 04:11:12;;;;;;;35.03;19.17;;;;;;;16.74;56.71;101740.88;5008068;28;20026;-61
2022/05/10 04:13:39;;;;;;;27.40;19.20;;;;;;;16.77;56.08;101737.50;5009835;28;20026;-61
2022/05/10 04:16:05;;;;;;;29.20;20.63;;;;;;;16.80;56.10;101736.13;5011387;28;20056;-61
2022/05/10 04:18:31;;;;;;;30.10;20.77;;;;;;;16.80;56.13;101736.97;5008761;28;20053;-61
2022/05/10 04:20:56;;;;;;;29.90;20.58;;;;;;;16.88;55.97;101744.00;5030373;28;20041;-61
2022/05/10 04:23:28;;;;;;;31.08;19.33;;;;;;;16.81;55.74;101737.81;5010825;28;20421;-61
2022/05/10 04:25:53;;;;;;;33.70;20.70;;;;;;;16.83;56.28;101733.63;5010250;28;20034;-61
2022/05/10 04:28:19;;;;;;;30.73;20.42;;;;;;;16.80;56.47;101736.97;5007910;28;20045;-61
2022/05/10 04:30:45;;;;;;;33.00;20.77;;;;;;;16.77;56.13;101740.31;5018896;28;20052;-62
2022/05/10 04:33:10;;;;;;;31.25;20.05;;;;;;;16.82;55.67;101728.28;5011093;28;20486;-61
2022/05/10 04:35:36;;;;;;;29.17;19.60;;;;;;;16.86;55.42;101733.09;5008854;28;20049;-61
2022/05/10 04:38:07;;;;;;;31.90;19.23;;;;;;;16.90;54.98;101731.41;5008632;28;20049;-61
2022/05/10 04:43:17;;;;;;;33.28;18.85;;;;;;;16.94;54.68;101726.09;4999701;28;20551;-61
2022/05/10 04:45:42;;;;;;;28.17;18.17;;;;;;;16.97;54.61;101724.69;5008550;28;20030;-62
2022/05/10 04:48:10;;;;;;;33.25;19.02;;;;;;;16.98;54.39;101721.63;5010848;28;20072;-61
2022/05/10 04:50:35;;;;;;;28.52;17.42;;;;;;;17.05;54.10;101721.34;5006465;28;20021;-61
2022/05/10 04:53:01;;;;;;;32.53;18.60;;;;;;;17.00;54.57;101718.53;5009557;28;20392;-61
2022/05/10 04:55:26;;;;;;;27.25;17.48;;;;;;;17.03;54.35;101718.84;5011066;28;20033;-61
2022/05/10 04:57:51;;;;;;;24.50;17.75;;;;;;;17.12;53.99;101721.94;5008777;28;20030;-61
2022/05/10 05:00:17;;;;;;;28.80;18.00;;;;;;;17.09;53.94;101720.50;5006164;28;20088;-61
2022/05/10 05:02:43;;;;;;;31.50;17.38;;;;;;;17.11;53.99;101715.50;5003441;28;20052;-61
2022/05/10 05:05:10;;;;;;;24.35;18.35;;;;;;;17.06;54.29;101711.84;5009622;28;20033;-61
2022/05/10 05:07:36;;;;;;;39.25;18.98;;;;;;;17.09;54.23;101720.50;5008444;28;20061;-61
2022/05/10 05:10:02;;;;;;;29.70;18.27;;;;;;;17.16;54.17;101720.25;5007988;28;20038;-61
2022/05/10 05:12:29;;;;;;;25.85;17.88;;;;;;;17.21;54.16;101719.44;5008588;28;20072;-62
2022/05/10 05:14:54;;;;;;;22.88;17.13;;;;;;;17.18;54.45;101730.09;5008031;28;20432;-62
2022/05/10 05:17:19;;;;;;;27.42;17.73;;;;;;;17.18;54.54;101729.25;5007104;28;20042;-62
2022/05/10 05:19:45;;;;;;;26.70;17.52;;;;;;;17.21;54.28;101728.69;5008592;28;20485;-62
2022/05/10 05:22:10;;;;;;;23.58;17.17;;;;;;;17.19;54.56;101728.13;5008767;28;20033;-62
2022/05/10 05:24:41;;;;;;;27.17;16.52;;;;;;;17.29;54.45;101727.31;5008915;28;20034;-61
2022/05/10 05:27:06;;;;;;;24.92;16.25;;;;;;;17.26;54.78;101734.34;5008549;28;20097;-62
2022/05/10 05:29:32;;;;;;;24.65;15.75;;;;;;;17.33;54.48;101729.31;5012722;28;20042;-62
2022/05/10 05:32:00;;;;;;;19.42;15.73;;;;;;;17.32;54.33;101726.75;5010686;28;20061;-62
2022/05/10 05:34:25;;;;;;;18.25;15.05;;;;;;;17.32;54.53;101721.97;5013085;28;20029;-62
2022/05/10 05:39:54;;;;;;;20.55;15.65;;;;;;;17.40;54.31;101729.00;5011375;28;20508;-62
2022/05/10 05:42:19;;;;;;;21.00;14.45;;;;;;;17.38;54.46;101726.50;5008005;28;20857;-62
2022/05/10 05:44:45;;;;;;;17.35;14.30;;;;;;;17.40;54.48;101724.25;5009649;28;20049;-62
2022/05/10 05:47:10;;;;;;;20.83;14.48;;;;;;;17.44;54.31;101727.34;5011238;28;20481;-62
2022/05/10 05:49:36;;;;;;;21.48;14.75;;;;;;;17.38;54.85;101720.88;5009716;28;20033;-61
2022/05/10 05:52:02;;;;;;;17.55;14.85;;;;;;;17.41;54.88;101725.13;5011272;28;20145;-62
2022/05/10 05:54:28;;;;;;;17.88;14.80;;;;;;;17.46;55.04;101724.28;5012528;28;20409;-61
2022/05/10 05:57:04;;;;;;;16.85;14.57;;;;;;;17.50;54.53;101717.81;5013990;28;20186;-62
2022/05/10 05:59:30;;;;;;;18.05;15.82;;;;;;;17.47;54.97;101711.91;5012225;28;20060;-61
2022/05/10 06:01:56;;;;;;;20.50;14.35;;;;;;;17.48;55.11;101703.22;5011331;28;20030;-63
2022/05/10 06:04:22;;;;;;;23.52;15.35;;;;;;;17.53;54.88;101702.41;5007686;28;20038;-61
2022/05/10 06:06:48;;;;;;;19.15;14.65;;;;;;;17.57;54.65;101698.75;5005482;28;20256;-61
2022/05/10 06:09:13;;;;;;;21.40;13.65;;;;;;;17.61;54.82;101704.66;5007626;28;20036;-61
2022/05/10 06:11:39;;;;;;;16.13;13.70;;;;;;;17.67;54.35;101707.16;5009696;28;20060;-62
2022/05/10 06:14:05;;;;;;;14.60;12.63;;;;;;;17.72;54.59;101709.13;5008940;28;20390;-61
2022/05/10 06:16:30;;;;;;;16.70;13.13;;;;;;;17.73;54.47;101710.00;5006754;28;20042;-61
2022/05/10 06:18:55;;;;;;;16.23;12.88;;;;;;;17.76;54.46;101706.63;5004526;28;20037;-61
2022/05/10 06:21:21;;;;;;;15.07;12.75;;;;;;;17.79;54.21;101709.72;5004826;28;20045;-61
2022/05/10 06:23:49;;;;;;;29.85;13.70;;;;;;;17.77;54.76;101706.38;5009697;28;20038;-61
2022/05/10 06:26:14;;;;;;;16.88;13.15;;;;;;;17.81;54.80;101696.25;5008522;28;20393;-61
2022/05/10 06:28:39;;;;;;;14.70;12.13;;;;;;;17.85;55.11;101694.56;5007385;28;20044;-61
2022/05/10 06:31:07;;;;;;;16.88;12.35;;;;;;;17.89;54.96;101698.50;5009075;28;20048;-61
2022/05/10 06:33:32;;;;;;;15.75;12.05;;;;;;;17.89;54.75;101698.50;5008867;28;20030;-62
2022/05/10 06:35:58;;;;;;;12.20;10.80;;;;;;;17.91;54.62;101693.41;4998776;28;20042;-61
2022/05/10 06:38:29;;;;;;;18.38;12.05;;;;;;;17.94;54.72;101699.63;4996968;28;20096;-61
2022/05/10 06:41:04;;;;;;;14.57;11.85;;;;;;;17.95;54.89;101696.50;5006893;28;20030;-62
2022/05/10 06:43:30;;;;;;;13.60;11.60;;;;;;;18.00;54.97;101698.47;5008951;28;20045;-62
2022/05/10 06:45:57;;;;;;;16.88;11.23;;;;;;;18.02;54.92;101685.84;5008007;28;20382;-62
2022/05/10 06:48:24;;;;;;;13.55;10.80;;;;;;;18.06;55.06;101686.13;5003150;28;20093;-61
2022/05/10 06:50:49;;;;;;;11.07;9.80;;;;;;;18.10;54.86;101682.44;5000161;28;20034;-62
2022/05/10 06:53:14;;;;;;;14.52;10.57;;;;;;;18.14;54.76;101691.16;4993766;28;20022;-62
2022/05/10 06:55:40;;;;;;;18.35;10.13;;;;;;;18.16;55.63;101688.91;4992848;28;20026;-62
2022/05/10 06:58:06;;;;;;;19.05;11.00;;;;;;;18.20;55.20;101680.75;4993698;28;20094;-62
2022/05/10 07:00:35;;;;;;;17.23;9.77;;;;;;;18.28;54.84;101685.81;5000782;28;20057;-62
2022/05/10 07:03:11;;;;;;;11.27;9.75;;;;;;;18.29;55.30;101682.69;5012103;28;20045;-62
2022/05/10 07:05:37;;;;;;;15.45;9.40;;;;;;;18.34;54.81;101677.06;5010271;28;20034;-62
2022/05/10 07:08:03;;;;;;;12.23;9.45;;;;;;;18.40;55.28;101681.53;5003572;28;20112;-61
2022/05/10 07:10:28;;;;;;;14.38;9.13;;;;;;;18.48;54.35;101680.13;5032092;28;20022;-62
2022/05/10 07:12:58;;;;;;;12.70;8.93;;;;;;;18.59;54.65;101670.53;5032669;28;20388;-61
2022/05/10 07:15:26;;;;;;;10.55;8.95;;;;;;;18.63;54.62;101671.63;5032683;28;20078;-62
2022/05/10 07:17:52;;;;;;;29.08;10.65;;;;;;;18.69;54.34;101674.41;5030048;28;20018;-61
2022/05/10 07:20:18;;;;;;;13.77;8.63;;;;;;;18.75;53.73;101664.88;5012821;28;20018;-62
2022/05/10 07:22:44;;;;;;;15.27;8.82;;;;;;;18.81;54.48;101660.88;5010276;28;22785;-61
2022/05/10 07:25:12;;;;;;;12.00;8.93;;;;;;;18.87;53.99;101663.38;4999827;28;20068;-61
2022/05/10 07:27:39;;;;;;;14.68;9.02;;;;;;;18.95;54.01;101664.75;5011522;28;20014;-61
2022/05/10 07:30:08;;;;;;;8.20;7.40;;;;;;;18.99;53.64;101648.13;5012371;28;20477;-61
2022/05/10 07:32:34;;;;;;;15.73;8.35;;;;;;;19.14;52.37;101662.13;4991586;28;20038;-61
2022/05/10 07:35:02;;;;;;;17.00;8.93;;;;;;;19.20;53.07;101660.94;4993106;28;20037;-62
2022/05/10 07:37:28;;;;;;;9.73;8.38;;;;;;;19.21;52.67;101662.59;4992141;28;20029;-61
2022/05/10 07:39:53;;;;;;;11.90;7.93;;;;;;;19.23;52.79;101660.34;5011170;28;20446;-61
2022/05/10 07:42:21;;;;;;;20.63;9.52;;;;;;;19.27;53.05;101660.63;5012228;28;20172;-61
2022/05/10 07:44:49;;;;;;;16.95;7.80;;;;;;;19.30;52.40;101655.25;5010910;28;20831;-62
2022/05/10 07:47:14;;;;;;;11.07;7.70;;;;;;;19.35;52.38;101652.38;5011708;28;20026;-62
2022/05/10 07:49:39;;;;;;;13.68;7.50;;;;;;;19.45;52.34;101644.97;5011512;28;20084;-61
2022/05/10 07:52:05;;;;;;;11.90;7.15;;;;;;;19.52;51.83;101643.50;5006905;28;20032;-62
2022/05/10 07:54:30;;;;;;;9.60;6.80;;;;;;;19.57;51.50;101651.06;5007212;28;20662;-61
2022/05/10 07:56:55;;;;;;;16.65;7.60;;;;;;;19.59;51.45;101641.22;5003913;28;20029;-62
2022/05/10 07:59:21;;;;;;;12.52;7.90;;;;;;;19.68;51.95;101643.41;5010164;28;20034;-62
2022/05/10 08:01:46;;;;;;;12.85;7.20;;;;;;;19.73;51.32;101649.88;5010174;28;20029;-64
2022/05/10 08:04:12;;;;;;;8.98;6.85;;;;;;;19.77;51.22;101642.50;5009749;28;20037;-62
2022/05/10 08:06:40;;;;;;;12.02;6.80;;;;;;;19.80;51.41;101653.16;5010203;28;20030;-62
2022/05/10 08:09:05;;;;;;;12.82;6.65;;;;;;;19.81;51.06;101659.66;5012026;28;20109;-62
2022/05/10 08:11:30;;;;;;;12.93;6.63;;;;;;;19.89;50.64;101652.53;5011376;28;20102;-62
2022/05/10 08:13:55;;;;;;;11.48;7.00;;;;;;;19.89;50.81;101647.75;5011020;28;20837;-62
2022/05/10 08:16:21;;;;;;;12.18;7.45;;;;;;;19.92;50.04;101646.28;5011500;28;20034;-62
2022/05/10 08:18:48;;;;;;;8.75;6.93;;;;;;;19.92;50.27;101646.28;5010661;28;20061;-62
2022/05/10 08:21:14;;;;;;;12.05;7.20;;;;;;;19.93;49.93;101650.81;5010777;28;20018;-62
2022/05/10 08:23:40;;;;;;;8.18;6.85;;;;;;;19.94;49.91;101641.22;5008936;28;20041;-62
2022/05/10 08:26:06;;;;;;;9.57;6.82;;;;;;;19.94;49.86;101644.03;5008573;28;20821;-62
2022/05/10 08:28:34;;;;;;;10.45;6.97;;;;;;;19.96;49.83;101644.56;5010418;28;20029;-62
2022/05/10 08:31:02;;;;;;;8.05;6.43;;;;;;;19.97;50.45;101640.63;5010681;28;20053;-62
2022/05/10 08:33:30;;;;;;;9.43;6.32;;;;;;;19.95;49.53;101635.25;5011562;28;20036;-62
2022/05/10 08:35:57;;;;;;;10.93;6.70;;;;;;;19.96;49.42;101634.13;5010625;28;20064;-62
2022/05/10 08:38:24;;;;;;;12.77;6.25;;;;;;;19.99;49.67;101627.06;5011158;28;20485;-62
2022/05/10 08:40:54;;;;;;;9.93;6.40;;;;;;;19.99;49.87;101625.06;5010032;28;20044;-62
2022/05/10 08:43:25;;;;;;;10.48;6.10;;;;;;;19.98;49.84;101620.59;5011019;28;20022;-62
2022/05/10 08:45:52;;;;;;;8.52;6.05;;;;;;;20.01;50.00;101627.63;5011085;28;20033;-62
2022/05/10 08:48:18;;;;;;;11.45;6.88;;;;;;;20.00;49.62;101623.09;5010470;28;20060;-62
2022/05/10 08:50:47;;;;;;;9.43;5.72;;;;;;;19.99;49.35;101621.41;5010536;28;20042;-62
2022/05/10 08:53:14;;;;;;;15.98;6.50;;;;;;;20.03;49.21;101626.16;4991654;28;20049;-62
2022/05/10 08:55:47;;;;;;;9.40;6.50;;;;;;;20.06;48.89;101625.56;5003548;28;20061;-62
2022/05/10 08:58:38;;;;;;;11.43;6.10;;;;;;;20.13;49.27;101621.56;5008381;28;20465;-60
2022/05/10 09:01:10;;;;;;;10.32;6.70;;;;;;;20.15;48.83;101614.47;5010063;28;20030;-61
2022/05/10 09:03:41;;;;;;;6.45;5.68;;;;;;;20.22;48.85;101609.31;5004162;28;20472;-61
2022/05/10 09:06:34;;;;;;;9.88;5.95;;;;;;;20.38;49.10;101609.16;5008696;28;20111;-60
2022/05/10 09:09:22;;;;;;;8.82;6.03;;;;;;;20.50;48.45;101607.59;5000784;28;20053;-61
2022/05/10 09:11:51;;;;;;;7.43;6.07;;;;;;;20.62;47.65;101603.50;5010435;28;20094;-62
2022/05/10 09:14:26;;;;;;;10.02;6.15;;;;;;;20.72;48.48;101618.31;5008499;28;20075;-62
2022/05/10 09:16:55;;;;;;;9.32;5.97;;;;;;;20.81;47.50;101610.00;5005574;28;20034;-62
2022/05/10 09:19:29;;;;;;;9.45;6.05;;;;;;;20.89;47.37;101605.66;5007650;28;20354;-61
2022/05/10 09:21:55;;;;;;;9.35;6.70;;;;;;;20.98;47.31;101599.00;5010371;28;20034;-62
2022/05/10 09:24:54;;;;;;;9.13;6.32;;;;;;;21.04;47.72;101605.44;5010023;28;20033;-61
2022/05/10 09:27:25;;;;;;;11.95;6.40;;;;;;;21.08;47.08;101603.69;4987469;28;20088;-62
2022/05/10 09:29:52;;;;;;;15.77;7.10;;;;;;;21.13;47.02;101595.13;5011225;28;20034;-61
2022/05/10 09:35:19;;;;;;;11.43;5.95;;;;;;;21.21;46.93;101591.59;5007769;28;20468;-62
2022/05/10 09:37:52;;;;;;;9.40;6.35;;;;;;;21.21;46.82;101594.44;5006569;28;20029;-62
2022/05/10 09:40:25;;;;;;;9.75;6.75;;;;;;;21.22;46.67;101593.31;5010600;28;20444;-62
2022/05/10 09:42:53;;;;;;;11.10;6.13;;;;;;;21.27;46.62;101598.88;5010660;28;20049;-62
2022/05/10 09:45:23;;;;;;;12.15;6.47;;;;;;;21.31;47.00;101605.56;5009244;28;20030;-62
2022/05/10 09:48:02;;;;;;;9.05;6.40;;;;;;;21.32;47.21;101597.94;5008496;28;20030;-62
2022/05/10 09:50:51;;;;;;;8.70;7.05;;;;;;;21.35;47.35;101600.19;5009240;28;20037;-62
2022/05/10 09:53:25;;;;;;;8.82;6.30;;;;;;;21.45;46.64;101587.84;4980245;28;20042;-62
2022/05/10 09:56:08;;;;;;;10.57;6.45;;;;;;;21.61;46.70;101582.78;4996537;28;20026;-62
2022/05/10 09:58:41;;;;;;;15.13;6.38;;;;;;;21.79;46.68;101562.94;5009260;28;20041;-62
2022/05/10 10:01:11;;;;;;;11.88;5.70;;;;;;;21.87;46.65;101569.84;5010829;28;20018;-61
2022/05/10 10:03:40;;;;;;;9.93;5.78;;;;;;;22.01;45.94;101567.06;5003220;28;20157;-62
2022/05/10 10:06:23;;;;;;;9.60;6.20;;;;;;;22.10;46.03;101561.50;5006182;28;20041;-62
2022/05/10 10:08:54;;;;;;;9.50;6.60;;;;;;;22.19;45.60;101562.47;5009817;28;20073;-61
2022/05/10 10:11:22;;;;;;;9.05;5.75;;;;;;;22.35;45.22;101558.16;5013500;28;20104;-60
2022/05/10 10:13:58;;;;;;;8.88;6.20;;;;;;;22.37;44.61;101560.69;5029256;28;20568;-61
2022/05/10 10:16:26;;;;;;;6.47;5.68;;;;;;;22.44;43.91;101558.25;5006189;28;20493;-61
2022/05/10 10:18:58;;;;;;;12.52;5.40;;;;;;;22.67;43.97;101551.50;4993936;28;20520;-61
2022/05/10 10:21:33;;;;;;;14.73;5.47;;;;;;;22.87;43.25;101557.84;4994280;28;20034;-61
2022/05/10 10:24:04;;;;;;;12.82;6.13;;;;;;;23.01;42.48;101548.19;4999389;28;20025;-61
2022/05/10 10:26:45;;;;;;;11.13;5.25;;;;;;;23.12;42.37;101551.59;5010424;28;20034;-61
2022/05/10 10:29:19;;;;;;;9.93;4.97;;;;;;;23.25;41.59;101562.03;5010982;28;20132;-63
2022/05/10 10:31:52;;;;;;;9.48;4.63;;;;;;;23.26;41.26;101555.22;5013403;28;20055;-61
2022/05/10 10:34:24;;;;;;;11.25;4.70;;;;;;;23.23;40.93;101549.38;5008236;28;20485;-63
2022/05/10 10:36:59;;;;;;;12.63;5.03;;;;;;;23.35;40.52;101551.63;5009465;28;20120;-62
2022/05/10 10:39:39;;;;;;;12.32;5.00;;;;;;;23.43;41.14;101548.00;5013624;28;20040;-62
2022/05/10 10:42:29;;;;;;;29.90;5.78;;;;;;;23.47;41.05;101549.03;5011711;28;20029;-62
2022/05/10 10:45:00;;;;;;;13.27;5.03;;;;;;;23.50;40.42;101545.53;5007717;28;20041;-60
2022/05/10 10:47:48;;;;;;;8.35;4.70;;;;;;;23.51;40.18;101547.22;5008937;28;20044;-61
2022/05/10 10:50:28;;;;;;;14.77;5.22;;;;;;;23.51;40.15;101547.22;5006550;28;20439;-61
2022/05/10 10:52:58;;;;;;;12.05;5.63;;;;;;;23.50;40.53;101534.19;5006140;28;20508;-61
2022/05/10 10:56:10;;;;;;;10.38;4.97;;;;;;;23.52;41.52;101529.88;5011186;28;20071;-61
2022/05/10 10:59:04;;;;;;;7.47;5.32;;;;;;;23.58;41.37;101527.75;4983267;28;20129;-62
2022/05/10 11:01:29;;;;;;;8.75;5.13;;;;;;;23.61;41.00;101527.09;5008766;28;20050;-61
2022/05/10 11:04:22;;;;;;;17.60;6.00;;;;;;;23.51;41.03;101536.72;5011200;28;20061;-61
2022/05/10 11:06:50;;;;;;;14.63;5.45;;;;;;;23.52;40.25;101520.53;5010639;28;20307;-62
2022/05/10 11:09:39;;;;;;;14.93;5.40;;;;;;;23.48;40.28;101519.53;5005673;28;20385;-62
2022/05/10 11:12:15;;;;;;;15.90;6.10;;;;;;;23.48;40.27;101511.03;5010764;28;20679;-63
2022/05/10 11:14:57;;;;;;;8.88;5.10;;;;;;;23.39;41.41;101510.16;5011886;28;20081;-61
2022/05/10 11:17:26;;;;;;;9.75;5.40;;;;;;;23.40;40.66;101501.31;4996662;28;20070;-61
2022/05/10 11:20:21;;;;;;;15.02;5.50;;;;;;;23.29;41.40;101508.41;5014321;28;20026;-63
2022/05/10 11:22:57;;;;;;;10.10;5.97;;;;;;;23.26;41.04;101504.25;4996207;28;20050;-62
2022/05/10 11:25:41;;;;;;;13.20;5.90;;;;;;;23.25;40.97;101508.22;5007908;28;20113;-61
2022/05/10 11:28:26;;;;;;;15.45;5.55;;;;;;;23.26;41.39;101509.03;5012569;28;20470;-62
2022/05/10 11:31:03;;;;;;;17.88;6.00;;;;;;;23.36;41.40;101502.28;5009648;28;20090;-62
2022/05/10 11:33:38;;;;;;;12.10;5.30;;;;;;;23.45;41.24;101495.50;5008263;28;20049;-61
2022/05/10 11:36:16;;;;;;;11.07;5.65;;;;;;;23.57;41.11;101492.06;5008157;28;20034;-61
2022/05/10 11:38:59;;;;;;;9.82;5.47;;;;;;;23.63;41.39;101490.78;5008437;28;20080;-66
2022/05/10 11:41:45;;;;;;;14.60;6.07;;;;;;;23.68;40.90;101487.00;5010970;28;20032;-64
2022/05/10 11:45:01;;;;;;;7.65;5.75;;;;;;;23.65;41.49;101488.44;5009989;28;20037;-64
2022/05/10 11:47:42;;;;;;;10.27;5.40;;;;;;;23.61;40.85;101480.91;5005044;28;20088;-64